aviador You're here:

ZBAA Decoded Metar

BEIJING in CHINA
Report Time2017-07-24 22:00:00
UTC Time2017-07-24 22:29:48
Flight Rules vfr VFR
WindCalm
Visibility9999 m
Phenomena:N/A
Clouds:N/A
Expected CloudBase > 400 ft AGL from Temp-Dew spread
CeilingNone
Temp24°C (ISA +9)
Dew Point23°C (94% RH)
QNH1008 hPa
Density Alt1,703 ft
Elevation98 ft
Report Wrong Elevation
Raw Report
METAR ZBAA 242200Z 00000MPS CAVOK 24/23 Q1008 NOSIG=

Extra information for ZBAA:More info

Metar Taf Metar & Taf Last 4 Metars F.Rules Stats Wind Profile Meteogram Temp Stats Airport Information Weather charts Add Link Nearby VenuesMetar ALERT Operation Metar Decoded Social comments